This demonstration page uses our WeatherBlox Daily Observations layout. Learn more.

Left ArrowRight Arrow

36.17497, -115.13722

Hourly Observations for August 14, 2017

Temp ( °F °C ) Dew Point ( °F °C ) Humidity (%) Winds ( mph kmh ) Pressure ( in mb ) Visibility ( mi km ) Precip ( " mm )
12:53 am 00:53 Clear 88 31.1 29 -1.7 12 12 SW 13 20 29.73 1007 10 16.0934 N/A
1:53 am 01:53 Clear 87 30.6 30 -1.1 13 13 SSW 8 13 29.73 1007 10 16.0934 N/A
2:53 am 02:53 Clear 85 29.4 34 1.1 16 16 SW 13 20 29.73 1007 10 16.0934 N/A
3:53 am 03:53 Clear 83 28.3 35 1.7 18 18 SSE 9 15 29.73 1007 10 16.0934 N/A
4:53 am 04:53 Clear 80 26.7 36 2.2 20 20 SSE 7 11 29.73 1007 10 16.0934 N/A
5:53 am 05:53 Clear 79 26.1 36 2.2 21 21 S 8 13 29.74 1007 10 16.0934 N/A
6:53 am 06:53 Sunny 81 27.2 35 1.7 19 19 S 7 11 29.75 1008 10 16.0934 N/A
7:53 am 07:53 Sunny 83 28.3 35 1.7 18 18 S 12 19 29.76 1008 10 16.0934 N/A
8:53 am 08:53 Sunny 86 30 34 1.1 15 15 S 15 24 29.76 1008 10 16.0934 N/A
9:53 am 09:53 Sunny N/A N/A N/A S 17 28 N/A 10 16.0934 N/A
10:53 am 10:53 Sunny 93 33.9 33 0.6 12 12 SSW 15 24 29.74 1007 10 16.0934 N/A
11:53 am 11:53 Sunny 95 35 32 undefined 11 11 S 16 26 29.72 1007 10 16.0934 N/A
12:53 pm 12:53 Sunny 97 36.1 30 -1.1 9 9 SW 20 31 29.7 1006 10 16.0934 N/A
1:53 pm 13:53 Sunny 99 37.2 32 undefined 9 9 SSW 17 28 29.67 1005 10 16.0934 N/A
2:53 pm 14:53 Sunny 99 37.2 32 undefined 9 9 SW 18 30 29.65 1004 10 16.0934 N/A
3:53 pm 15:53 Sunny 99 37.2 31 -0.6 9 9 WSW 17 28 29.64 1004 10 16.0934 N/A
4:53 pm 16:53 Sunny 100 37.8 28 -2.2 8 8 SW 16 26 29.62 1003 10 16.0934 N/A
5:53 pm 17:53 Sunny 99 37.2 22 -5.6 6 6 SW 20 31 29.6 1003 10 16.0934 N/A
6:53 pm 18:53 Sunny 97 36.1 20 -6.7 6 6 SSW 18 30 29.6 1002 10 16.0934 N/A
7:53 pm 19:53 Clear 95 35 18 -7.8 6 6 SW 15 24 29.6 1003 10 16.0934 N/A
8:53 pm 20:53 Clear 93 33.9 15 -9.4 6 6 SW 14 22 29.61 1003 10 16.0934 N/A
9:53 pm 21:53 Clear 90 32.2 23 -5 9 9 SSW 6 9 29.53 1000 10 16.0934 N/A
10:53 pm 22:53 Clear 88 31.1 29 -1.7 12 12 S 17 28 29.63 1004 10 16.0934 N/A
11:53 pm 23:53 Clear 86 30 35 1.7 16 16 S 14 22 29.64 1004 10 16.0934 N/A

Powered by AerisWeather